Pagina principale
METAR-TAF:

METAR-TAF

Aeroporti :

Erzurum, Turchia

latitudine: 39-55N, longitudine: 041-16E, altezza: 1756 m

Osservazione

Il bollettino è stato emesso 38 minuti fa, alle 21:50 UTC
Vento 2 kt da direzioni variabili
Temperature 9°C
Umidità 49%
Pressione 1018 hPa
Visibilità 10 km o più
nessuna nube inferiore a 1500 m e nessun cumulonembo

METAR: LTCE 292150Z VRB02KT CAVOK 09/M01 Q1018 NOSIG RMK RWY08R VRB06KT RWY26R 33004KT 300V360 RWY08L VRB05KT

Ora: 01:28 (22:28 UTC)

Previsione

Il bollettino è stato emesso 5 ore e 48 minuti fa, alle 16:40 UTC
Previsione valida dal 29 alle 18 UTC al 30 alle 18 UTC
Vento 9 kt da sud/sud-ovest
Visibilità 10 km o più
nessuna nube inferiore a 1500 m e nessun cumulonembo

TAF: LTCE 291640Z 2918/3018 20009KT CAVOK

Osservazioni e previsioni meteorologiche di più di 4000 aeroporti (messaggi METAR e TAF).

Le stazioni disponibili sono rappresentate dai dischi gialli e rossi sulla carta.

Puntare il mouse per vedere il nome della stazione.

Clicca sopra per visualizzare le osservazioni e previsioni meteorologiche.

Per cambiare la mappa : fare clic sui pulsanti verdi con una croce nera per ingrandire, il pulsante verde con un trattino per diminuire, o sulla freccia verde per le mappe adiacenti.


METAR-TAF: